createdAt,value
2017-06-17T00:00:46.373Z,0
2017-06-17T00:01:41.126Z,0
2017-06-17T00:02:41.100Z,0
2017-06-17T00:03:36.145Z,0
2017-06-17T00:04:36.225Z,0
2017-06-17T00:05:31.214Z,0
2017-06-17T00:06:26.248Z,0
2017-06-17T00:07:20.354Z,0
2017-06-17T00:08:08.323Z,0
2017-06-17T00:08:56.416Z,0
2017-06-17T00:09:51.527Z,0
2017-06-17T00:10:39.961Z,0
2017-06-17T00:11:27.529Z,0
2017-06-17T00:12:15.571Z,0
2017-06-17T00:13:03.582Z,0
2017-06-17T00:13:51.694Z,0
2017-06-17T00:14:40.660Z,0
2017-06-17T00:15:29.240Z,0
2017-06-17T00:16:16.737Z,0
2017-06-17T00:17:16.783Z,0
2017-06-17T00:18:16.830Z,0
2017-06-17T00:19:04.860Z,0
2017-06-17T00:20:04.946Z,0
2017-06-17T00:20:59.919Z,0
2017-06-17T00:21:53.967Z,0
2017-06-17T00:22:53.990Z,0
2017-06-17T00:23:48.987Z,0
2017-06-17T00:24:44.048Z,0
2017-06-17T00:25:45.160Z,0
2017-06-17T00:26:45.299Z,0
2017-06-17T00:27:45.123Z,0
2017-06-17T00:28:40.232Z,0
2017-06-17T00:29:34.233Z,0
2017-06-17T00:30:34.255Z,0
2017-06-17T00:31:29.296Z,0
2017-06-17T00:32:29.310Z,0
2017-06-17T00:33:23.351Z,0
2017-06-17T00:34:23.409Z,0
2017-06-17T00:35:18.438Z,0
2017-06-17T00:36:13.487Z,0
2017-06-17T00:37:13.515Z,0
2017-06-17T00:38:08.566Z,0
2017-06-17T00:38:57.586Z,0
2017-06-17T00:39:51.575Z,0
2017-06-17T00:40:40.672Z,0
2017-06-17T00:41:35.685Z,0
2017-06-17T00:42:35.667Z,0
2017-06-17T00:43:30.785Z,0
2017-06-17T00:44:25.763Z,0
2017-06-17T00:45:26.784Z,0
2017-06-17T00:46:27.845Z,0
2017-06-17T00:47:27.851Z,0
2017-06-17T00:48:28.909Z,0
2017-06-17T00:49:22.916Z,0
2017-06-17T00:50:22.960Z,0
2017-06-17T00:51:16.956Z,0
2017-06-17T00:52:18.367Z,0
2017-06-17T00:53:07.011Z,0
2017-06-17T00:54:07.083Z,0
2017-06-17T00:55:08.201Z,0
2017-06-17T00:56:09.161Z,0
2017-06-17T00:57:03.210Z,0
2017-06-17T00:58:03.223Z,0
2017-06-17T00:58:58.254Z,0
2017-06-17T00:59:53.327Z,0
2017-06-17T01:00:54.373Z,0
2017-06-17T01:01:55.321Z,0
2017-06-17T01:02:50.399Z,0
2017-06-17T01:03:44.427Z,0
2017-06-17T01:04:44.552Z,0
2017-06-17T01:05:44.499Z,0
2017-06-17T01:06:39.550Z,0
2017-06-17T01:07:28.543Z,0
2017-06-17T01:08:22.657Z,0
2017-06-17T01:09:17.635Z,0
2017-06-17T01:10:11.756Z,0
2017-06-17T01:10:59.709Z,0
2017-06-17T01:11:54.788Z,0
2017-06-17T01:12:48.794Z,0
2017-06-17T01:13:48.890Z,0
2017-06-17T01:14:43.841Z,0
2017-06-17T01:15:38.923Z,0
2017-06-17T01:16:38.950Z,0
2017-06-17T01:17:34.049Z,0
2017-06-17T01:18:29.013Z,0
2017-06-17T01:19:17.011Z,0
2017-06-17T01:20:12.406Z,0
2017-06-17T01:21:01.145Z,0
2017-06-17T01:21:49.172Z,0
2017-06-17T01:22:49.250Z,0
2017-06-17T01:23:43.206Z,0
2017-06-17T01:24:38.260Z,0
2017-06-17T01:25:32.544Z,0
2017-06-17T01:26:32.316Z,0
2017-06-17T01:27:21.461Z,0
2017-06-17T01:28:15.748Z,0
2017-06-17T01:29:10.511Z,0
2017-06-17T01:30:05.965Z,0
2017-06-17T01:30:53.451Z,0
2017-06-17T01:31:42.571Z,0
2017-06-17T01:32:31.142Z,0
2017-06-17T01:33:18.711Z,0
2017-06-17T01:34:07.648Z,0
2017-06-17T01:34:55.753Z,0
2017-06-17T01:35:43.758Z,0
2017-06-17T01:36:33.076Z,0
2017-06-17T01:37:27.858Z,0
2017-06-17T01:38:21.911Z,0
2017-06-17T01:39:21.907Z,0
2017-06-17T01:40:10.963Z,0
2017-06-17T01:41:05.013Z,0
2017-06-17T01:42:05.063Z,0
2017-06-17T01:43:05.057Z,0
2017-06-17T01:44:00.134Z,0
2017-06-17T01:44:54.134Z,0
2017-06-17T01:45:43.216Z,0
2017-06-17T01:46:38.233Z,0
2017-06-17T01:47:32.293Z,0
2017-06-17T01:48:27.329Z,0
2017-06-17T01:49:27.401Z,0
2017-06-17T01:50:16.862Z,0
2017-06-17T01:51:05.428Z,0
2017-06-17T01:51:53.445Z,0
2017-06-17T01:52:42.507Z,0
2017-06-17T01:53:31.530Z,0
2017-06-17T01:54:19.558Z,0
2017-06-17T01:55:08.660Z,0
2017-06-17T01:55:57.655Z,0
2017-06-17T01:56:51.711Z,0
2017-06-17T01:57:40.803Z,0
2017-06-17T01:58:28.831Z,0
2017-06-17T01:59:17.870Z,0
2017-06-17T02:00:12.958Z,0
2017-06-17T02:01:12.913Z,0
2017-06-17T02:02:07.954Z,0
2017-06-17T02:03:02.008Z,0
2017-06-17T02:03:51.027Z,0
2017-06-17T02:04:39.054Z,0
2017-06-17T02:05:34.201Z,0
2017-06-17T02:06:23.140Z,0
2017-06-17T02:07:23.187Z,0
2017-06-17T02:08:23.430Z,0
2017-06-17T02:09:12.271Z,0
2017-06-17T02:10:07.380Z,0
2017-06-17T02:11:07.703Z,0
2017-06-17T02:12:02.385Z,0
2017-06-17T02:12:50.418Z,0
2017-06-17T02:13:45.441Z,0
2017-06-17T02:14:40.494Z,0
2017-06-17T02:15:28.575Z,0
2017-06-17T02:16:16.572Z,0
2017-06-17T02:17:10.604Z,0
2017-06-17T02:18:04.632Z,0
2017-06-17T02:18:52.653Z,0
2017-06-17T02:19:46.730Z,4
2017-06-17T02:20:40.919Z,4
2017-06-17T02:21:41.839Z,4
2017-06-17T02:22:35.846Z,4
2017-06-17T02:23:29.908Z,0
2017-06-17T02:24:24.888Z,0
2017-06-17T02:25:13.916Z,4
2017-06-17T02:26:08.014Z,4
2017-06-17T02:26:57.329Z,4
2017-06-17T02:27:51.057Z,4
2017-06-17T02:28:46.028Z,4
2017-06-17T02:29:47.158Z,8
2017-06-17T02:30:41.139Z,4
2017-06-17T02:31:35.258Z,4
2017-06-17T02:32:35.249Z,8
2017-06-17T02:33:29.264Z,12
2017-06-17T02:34:18.340Z,12
2017-06-17T02:35:18.365Z,12
2017-06-17T02:36:07.427Z,12
2017-06-17T02:37:02.455Z,16
2017-06-17T02:38:02.556Z,20
2017-06-17T02:38:56.545Z,24
2017-06-17T02:39:50.583Z,24
2017-06-17T02:40:39.622Z,32
2017-06-17T02:41:39.661Z,32
2017-06-17T02:42:34.660Z,32
2017-06-17T02:43:34.713Z,40
2017-06-17T02:44:29.279Z,44
2017-06-17T02:45:22.736Z,48
2017-06-17T02:46:17.820Z,52
2017-06-17T02:47:06.852Z,52
2017-06-17T02:48:00.923Z,60
2017-06-17T02:48:55.961Z,64
2017-06-17T02:49:50.942Z,72
2017-06-17T02:50:45.962Z,80
2017-06-17T02:51:40.016Z,88
2017-06-17T02:52:28.517Z,96
2017-06-17T02:53:23.149Z,104
2017-06-17T02:54:17.309Z,112
2017-06-17T02:55:11.741Z,124
2017-06-17T02:56:11.281Z,136
2017-06-17T02:57:06.256Z,152
2017-06-17T02:58:00.317Z,164
2017-06-17T02:58:48.354Z,172
2017-06-17T02:59:42.384Z,188
2017-06-17T03:00:31.463Z,204
2017-06-17T03:01:25.636Z,216
2017-06-17T03:02:19.530Z,232
2017-06-17T03:03:13.570Z,244
2017-06-17T03:04:13.613Z,256
2017-06-17T03:05:02.668Z,268
2017-06-17T03:05:51.660Z,280
2017-06-17T03:06:45.711Z,296
2017-06-17T03:07:39.990Z,316
2017-06-17T03:08:33.826Z,336
2017-06-17T03:09:33.814Z,360
2017-06-17T03:10:22.935Z,372
2017-06-17T03:11:22.915Z,392
2017-06-17T03:12:16.962Z,412
2017-06-17T03:13:04.940Z,424
2017-06-17T03:14:05.070Z,428
2017-06-17T03:15:00.057Z,428
2017-06-17T03:15:54.134Z,428
2017-06-17T03:16:48.113Z,420
2017-06-17T03:17:42.136Z,420
2017-06-17T03:18:36.239Z,424
2017-06-17T03:19:24.289Z,424
2017-06-17T03:20:19.344Z,432
2017-06-17T03:21:14.384Z,448
2017-06-17T03:22:08.781Z,468
2017-06-17T03:22:57.398Z,484
2017-06-17T03:23:52.450Z,508
2017-06-17T03:24:46.481Z,556
2017-06-17T03:25:42.063Z,600
2017-06-17T03:26:29.778Z,644
2017-06-17T03:27:23.903Z,668
2017-06-17T03:28:17.657Z,676
2017-06-17T03:29:06.679Z,672
2017-06-17T03:29:54.727Z,676
2017-06-17T03:30:54.752Z,708
2017-06-17T03:31:43.844Z,756
2017-06-17T03:32:31.878Z,792
2017-06-17T03:33:31.924Z,816
2017-06-17T03:34:25.950Z,832
2017-06-17T03:35:25.963Z,868
2017-06-17T03:36:15.019Z,908
2017-06-17T03:37:10.051Z,956
2017-06-17T03:38:10.312Z,1024
2017-06-17T03:38:59.617Z,1088
2017-06-17T03:39:53.180Z,1148
2017-06-17T03:40:53.247Z,1152
2017-06-17T03:41:42.278Z,1136
2017-06-17T03:42:30.363Z,1136
2017-06-17T03:43:30.340Z,1152
2017-06-17T03:44:24.351Z,1104
2017-06-17T03:45:12.563Z,1036
2017-06-17T03:46:13.459Z,1024
2017-06-17T03:47:08.447Z,1044
2017-06-17T03:48:03.546Z,1048
2017-06-17T03:48:57.977Z,1120
2017-06-17T03:49:52.960Z,1240
2017-06-17T03:50:41.640Z,1296
2017-06-17T03:51:41.649Z,1360
2017-06-17T03:52:36.722Z,1416
2017-06-17T03:53:37.845Z,1384
2017-06-17T03:54:38.140Z,1412
2017-06-17T03:55:32.850Z,1424
2017-06-17T03:56:27.355Z,1420
2017-06-17T03:57:21.327Z,1432
2017-06-17T03:58:16.415Z,1428
2017-06-17T03:59:11.482Z,1448
2017-06-17T03:59:59.463Z,1464
2017-06-17T04:00:59.074Z,1692
2017-06-17T04:01:59.404Z,2068
2017-06-17T04:02:54.457Z,2292
2017-06-17T04:03:43.620Z,2380
2017-06-17T04:04:32.661Z,2448
2017-06-17T04:05:26.289Z,2444
2017-06-17T04:06:26.341Z,2444
2017-06-17T04:07:26.320Z,2476
2017-06-17T04:08:20.370Z,2572
2017-06-17T04:09:15.451Z,2688
2017-06-17T04:10:10.084Z,2884
2017-06-17T04:11:03.457Z,2984
2017-06-17T04:11:52.557Z,2896
2017-06-17T04:12:40.559Z,2800
2017-06-17T04:13:35.107Z,2748
2017-06-17T04:14:24.149Z,2716
2017-06-17T04:15:17.820Z,2828
2017-06-17T04:16:11.846Z,2956
2017-06-17T04:17:00.819Z,2924
2017-06-17T04:17:48.841Z,2732
2017-06-17T04:18:37.856Z,2420
2017-06-17T04:19:25.932Z,2232
2017-06-17T04:20:14.175Z,2172
2017-06-17T04:21:03.034Z,2156
2017-06-17T04:21:51.361Z,2132
2017-06-17T04:22:45.435Z,2160
2017-06-17T04:23:39.153Z,2264
2017-06-17T04:24:27.745Z,2416
2017-06-17T04:25:16.399Z,2596
2017-06-17T04:26:11.264Z,2800
2017-06-17T04:27:05.346Z,2904
2017-06-17T04:28:06.346Z,3000
2017-06-17T04:29:01.739Z,3076
2017-06-17T04:30:01.953Z,3000
2017-06-17T04:31:07.698Z,2792
2017-06-17T04:32:02.549Z,2648
2017-06-17T04:32:56.507Z,2580
2017-06-17T04:33:56.948Z,2540
2017-06-17T04:34:52.112Z,2576
2017-06-17T04:35:46.701Z,2660
2017-06-17T04:36:46.700Z,2668
2017-06-17T04:37:41.743Z,2596
2017-06-17T04:38:36.774Z,2516
2017-06-17T04:39:30.825Z,2464
2017-06-17T04:40:31.858Z,2472
2017-06-17T04:41:26.909Z,2512
2017-06-17T04:42:26.947Z,2512
2017-06-17T04:43:26.932Z,2484
2017-06-17T04:44:27.508Z,2492
2017-06-17T04:45:27.454Z,2488
2017-06-17T04:46:27.091Z,2484
2017-06-17T04:47:27.449Z,2504
2017-06-17T04:48:27.708Z,2560
2017-06-17T04:49:27.174Z,2608
2017-06-17T04:50:27.198Z,2664
2017-06-17T04:51:27.695Z,2760
2017-06-17T04:52:27.805Z,2808
2017-06-17T04:53:27.710Z,2832
2017-06-17T04:54:21.915Z,2812
2017-06-17T04:55:21.897Z,2848
2017-06-17T04:56:16.481Z,2892
2017-06-17T04:57:11.431Z,2932
2017-06-17T04:58:00.504Z,2972
2017-06-17T04:58:49.556Z,3000
2017-06-17T04:59:43.615Z,3028
2017-06-17T05:00:43.749Z,3020
2017-06-17T05:01:38.650Z,2972
2017-06-17T05:02:38.740Z,3044
2017-06-17T05:03:33.754Z,2996
2017-06-17T05:04:28.929Z,2956
2017-06-17T05:05:22.853Z,3080
2017-06-17T05:06:23.931Z,3172
2017-06-17T05:07:23.919Z,3216
2017-06-17T05:08:18.951Z,3212
2017-06-17T05:09:24.957Z,3276
2017-06-17T05:10:25.379Z,3336
2017-06-17T05:11:26.508Z,3480
2017-06-17T05:12:27.597Z,3624
2017-06-17T05:13:27.546Z,3748
2017-06-17T05:14:27.606Z,3788
2017-06-17T05:15:21.681Z,3840
2017-06-17T05:16:21.664Z,3856
2017-06-17T05:17:16.126Z,3896
2017-06-17T05:18:15.754Z,4032
2017-06-17T05:19:04.836Z,4180
2017-06-17T05:19:53.863Z,4300
2017-06-17T05:20:47.955Z,4404
2017-06-17T05:21:47.992Z,4492
2017-06-17T05:22:37.597Z,4640
2017-06-17T05:23:30.558Z,4952
2017-06-17T05:24:30.998Z,5284
2017-06-17T05:25:26.143Z,5368
2017-06-17T05:26:21.085Z,5196
2017-06-17T05:27:15.150Z,5300
2017-06-17T05:28:15.283Z,5728
2017-06-17T05:29:10.295Z,5988
2017-06-17T05:30:05.324Z,6012
2017-06-17T05:31:05.114Z,6096
2017-06-17T05:32:00.429Z,6044
2017-06-17T05:32:55.360Z,5768
2017-06-17T05:33:44.500Z,5512
2017-06-17T05:34:39.563Z,5288
2017-06-17T05:35:39.558Z,5128
2017-06-17T05:36:34.558Z,4976
2017-06-17T05:37:29.657Z,4908
2017-06-17T05:38:23.684Z,4940
2017-06-17T05:39:18.815Z,5004
2017-06-17T05:40:07.794Z,5012
2017-06-17T05:40:55.341Z,4960
2017-06-17T05:41:43.873Z,4976
2017-06-17T05:42:37.441Z,5052
2017-06-17T05:43:25.467Z,5116
2017-06-17T05:44:26.071Z,5312
2017-06-17T05:45:25.497Z,5560
2017-06-17T05:46:25.567Z,5840
2017-06-17T05:47:25.611Z,6052
2017-06-17T05:48:26.156Z,6052
2017-06-17T05:49:19.687Z,6076
2017-06-17T05:50:07.771Z,6208
2017-06-17T05:50:55.734Z,6352
2017-06-17T05:51:43.938Z,6472
2017-06-17T05:52:33.337Z,6536
2017-06-17T05:53:21.260Z,6536
2017-06-17T05:54:10.215Z,6444
2017-06-17T05:54:58.463Z,6408
2017-06-17T05:55:46.839Z,6528
2017-06-17T05:56:35.545Z,6664
2017-06-17T05:57:24.556Z,7124
2017-06-17T05:58:13.696Z,7452
2017-06-17T05:59:13.628Z,7624
2017-06-17T06:00:08.173Z,7704
2017-06-17T06:01:03.056Z,7848
2017-06-17T06:01:56.832Z,7796
2017-06-17T06:02:51.872Z,7556
2017-06-17T06:03:52.999Z,7896
2017-06-17T06:04:46.956Z,8704
2017-06-17T06:05:41.095Z,9420
2017-06-17T06:06:34.913Z,9928
2017-06-17T06:07:29.862Z,10260
2017-06-17T06:08:18.121Z,10464
2017-06-17T06:09:12.122Z,10704
2017-06-17T06:10:00.215Z,11056
2017-06-17T06:10:47.771Z,11636
2017-06-17T06:11:37.589Z,12292
2017-06-17T06:12:30.936Z,12952
2017-06-17T06:13:31.365Z,13108
2017-06-17T06:14:25.455Z,13020
2017-06-17T06:15:20.000Z,13272
2017-06-17T06:16:15.332Z,13960
2017-06-17T06:17:10.527Z,14672
2017-06-17T06:18:05.529Z,15008
2017-06-17T06:18:54.592Z,14808
2017-06-17T06:19:48.416Z,14644
2017-06-17T06:20:42.495Z,14556
2017-06-17T06:21:36.830Z,14720
2017-06-17T06:22:31.860Z,15096
2017-06-17T06:23:19.866Z,15512
2017-06-17T06:24:07.937Z,16016
2017-06-17T06:24:56.969Z,16736
2017-06-17T06:25:45.994Z,17024
2017-06-17T06:26:46.048Z,16608
2017-06-17T06:27:35.160Z,16012
2017-06-17T06:28:29.143Z,15304
2017-06-17T06:29:18.202Z,14876
2017-06-17T06:30:06.225Z,14916
2017-06-17T06:31:00.334Z,14668
2017-06-17T06:31:48.375Z,14116
2017-06-17T06:32:36.400Z,13760
2017-06-17T06:33:25.430Z,13964
2017-06-17T06:34:13.450Z,14556
2017-06-17T06:35:02.536Z,15024
2017-06-17T06:35:56.580Z,15460
2017-06-17T06:36:51.633Z,15524
2017-06-17T06:37:45.700Z,14960
2017-06-17T06:38:39.681Z,14268
2017-06-17T06:39:28.718Z,14064
2017-06-17T06:40:16.821Z,14008
2017-06-17T06:41:05.852Z,14044
2017-06-17T06:41:59.906Z,13908
2017-06-17T06:42:49.067Z,13636
2017-06-17T06:43:42.823Z,13660
2017-06-17T06:44:37.974Z,13368
2017-06-17T06:45:32.062Z,11988
2017-06-17T06:46:27.067Z,10596
2017-06-17T06:47:22.115Z,11200
2017-06-17T06:48:16.196Z,11872
2017-06-17T06:49:10.234Z,12204
2017-06-17T06:50:05.216Z,12280
2017-06-17T06:50:59.307Z,12420
2017-06-17T06:51:53.360Z,12408
2017-06-17T06:52:53.421Z,12124
2017-06-17T06:53:41.955Z,11132
2017-06-17T06:54:36.524Z,10024
2017-06-17T06:55:24.472Z,9836
2017-06-17T06:56:24.647Z,10160
2017-06-17T06:57:18.605Z,10276
2017-06-17T06:58:13.500Z,10408
2017-06-17T06:59:13.798Z,11184
2017-06-17T07:00:02.476Z,11888
2017-06-17T07:00:51.507Z,12328
2017-06-17T07:01:45.366Z,12680
2017-06-17T07:02:33.632Z,13152
2017-06-17T07:03:33.935Z,14120
2017-06-17T07:04:21.839Z,14832
2017-06-17T07:05:10.556Z,15364
2017-06-17T07:05:59.044Z,15920
2017-06-17T07:06:47.661Z,16576
2017-06-17T07:07:41.736Z,16640
2017-06-17T07:08:36.740Z,16544
2017-06-17T07:09:25.794Z,16060
2017-06-17T07:10:15.433Z,15708
2017-06-17T07:11:10.301Z,15316
2017-06-17T07:11:59.332Z,14784
2017-06-17T07:12:48.456Z,14064
2017-06-17T07:13:43.533Z,13756
2017-06-17T07:14:37.621Z,13768
2017-06-17T07:15:37.598Z,13228
2017-06-17T07:16:26.609Z,12136
2017-06-17T07:17:15.689Z,11392
2017-06-17T07:18:15.688Z,11084
2017-06-17T07:19:09.743Z,11356
2017-06-17T07:20:09.818Z,11604
2017-06-17T07:21:03.854Z,11144
2017-06-17T07:21:57.879Z,10992
2017-06-17T07:22:57.954Z,10852
2017-06-17T07:23:45.982Z,11240
2017-06-17T07:24:33.995Z,11940
2017-06-17T07:25:22.036Z,12300
2017-06-17T07:26:11.154Z,12364
2017-06-17T07:26:59.186Z,12420
2017-06-17T07:27:48.267Z,12404
2017-06-17T07:28:36.250Z,12812
2017-06-17T07:29:25.348Z,13120
2017-06-17T07:30:20.409Z,13188
2017-06-17T07:31:08.460Z,13284
2017-06-17T07:31:57.713Z,13544
2017-06-17T07:32:46.525Z,13904
2017-06-17T07:33:35.615Z,13844
2017-06-17T07:34:29.576Z,14224
2017-06-17T07:35:18.749Z,14200
2017-06-17T07:36:18.678Z,13140
2017-06-17T07:37:07.816Z,12112
2017-06-17T07:37:55.804Z,11868
2017-06-17T07:38:55.806Z,12284
2017-06-17T07:39:50.012Z,13068
2017-06-17T07:40:44.924Z,13344
2017-06-17T07:41:33.958Z,13332
2017-06-17T07:42:28.061Z,14260
2017-06-17T07:43:16.092Z,15508
2017-06-17T07:44:10.181Z,16280
2017-06-17T07:45:04.198Z,16116
2017-06-17T07:45:53.277Z,15476
2017-06-17T07:46:42.317Z,14892
2017-06-17T07:47:36.393Z,14584
2017-06-17T07:48:30.368Z,14328
2017-06-17T07:49:24.432Z,15076
2017-06-17T07:50:19.462Z,16132
2017-06-17T07:51:07.538Z,16768
2017-06-17T07:51:55.536Z,17536
2017-06-17T07:52:55.652Z,17600
2017-06-17T07:53:43.621Z,17216
2017-06-17T07:54:38.696Z,17568
2017-06-17T07:55:32.767Z,17824
2017-06-17T07:56:26.817Z,17376
2017-06-17T07:57:15.855Z,17248
2017-06-17T07:58:04.929Z,18048
2017-06-17T07:58:58.937Z,20096
2017-06-17T07:59:46.992Z,21440
2017-06-17T08:00:42.028Z,20896
2017-06-17T08:01:37.081Z,18336
2017-06-17T08:02:31.117Z,17664
2017-06-17T08:03:25.222Z,19136
2017-06-17T08:04:20.205Z,21088
2017-06-17T08:05:14.307Z,22656
2017-06-17T08:06:08.224Z,23232
2017-06-17T08:07:03.307Z,23040
2017-06-17T08:07:52.394Z,21600
2017-06-17T08:08:47.379Z,20064
2017-06-17T08:09:41.469Z,20224
2017-06-17T08:10:36.639Z,21024
2017-06-17T08:11:25.545Z,21216
2017-06-17T08:12:26.609Z,20384
2017-06-17T08:13:20.615Z,19520
2017-06-17T08:14:08.699Z,19168
2017-06-17T08:15:03.728Z,19488
2017-06-17T08:15:52.802Z,19360
2017-06-17T08:16:52.807Z,18784
2017-06-17T08:17:47.851Z,18336
2017-06-17T08:18:42.878Z,18368
2017-06-17T08:19:43.003Z,17920
2017-06-17T08:20:37.011Z,16608
2017-06-17T08:21:31.019Z,16192
2017-06-17T08:22:25.091Z,16220
2017-06-17T08:23:20.144Z,15952
2017-06-17T08:24:14.189Z,16736
2017-06-17T08:25:03.292Z,17728
2017-06-17T08:25:52.315Z,19136
2017-06-17T08:26:41.292Z,20064
2017-06-17T08:27:36.399Z,20288
2017-06-17T08:28:31.447Z,19744
2017-06-17T08:29:31.483Z,18368
2017-06-17T08:30:25.566Z,17728
2017-06-17T08:31:25.717Z,17856
2017-06-17T08:32:19.654Z,18080
2017-06-17T08:33:19.662Z,18496
2017-06-17T08:34:14.762Z,19200
2017-06-17T08:35:08.814Z,20256
2017-06-17T08:35:56.912Z,21600
2017-06-17T08:36:45.908Z,23360
2017-06-17T08:37:39.917Z,25152
2017-06-17T08:38:33.972Z,26880
2017-06-17T08:39:28.077Z,27840
2017-06-17T08:40:28.001Z,28640
2017-06-17T08:41:22.162Z,29600
2017-06-17T08:42:16.130Z,30112
2017-06-17T08:43:11.239Z,30464
2017-06-17T08:44:06.258Z,30560
2017-06-17T08:45:00.326Z,31776
2017-06-17T08:45:55.345Z,32512
2017-06-17T08:46:49.376Z,33792
2017-06-17T08:47:43.415Z,34944
2017-06-17T08:48:32.514Z,35680
2017-06-17T08:49:27.551Z,34752
2017-06-17T08:50:16.676Z,33664
2017-06-17T08:51:11.664Z,32800
2017-06-17T08:52:00.864Z,32608
2017-06-17T08:52:48.714Z,32864
2017-06-17T08:53:43.825Z,32960
2017-06-17T08:54:38.872Z,33792
2017-06-17T08:55:32.902Z,34688
2017-06-17T08:56:28.003Z,34176
2017-06-17T08:57:22.047Z,33184
2017-06-17T08:58:11.035Z,31968
2017-06-17T08:59:00.142Z,30880
2017-06-17T08:59:54.150Z,29472
2017-06-17T09:00:55.236Z,28000
2017-06-17T09:01:49.294Z,26752
2017-06-17T09:02:49.311Z,27584
2017-06-17T09:03:37.363Z,28704
2017-06-17T09:04:32.386Z,28960
2017-06-17T09:05:26.451Z,28640
2017-06-17T09:06:27.572Z,28288
2017-06-17T09:07:16.566Z,27872
2017-06-17T09:08:11.752Z,26848
2017-06-17T09:09:06.677Z,26656
2017-06-17T09:09:55.720Z,26752
2017-06-17T09:11:01.774Z,25216
2017-06-17T09:11:56.826Z,23232
2017-06-17T09:12:50.863Z,22112
2017-06-17T09:13:50.924Z,21920
2017-06-17T09:14:44.914Z,22112
2017-06-17T09:15:44.944Z,22208
2017-06-17T09:16:34.073Z,22400
2017-06-17T09:17:34.095Z,22112
2017-06-17T09:18:34.169Z,21280
2017-06-17T09:19:34.198Z,21760
2017-06-17T09:20:33.756Z,23008
2017-06-17T09:21:28.783Z,23936
2017-06-17T09:22:28.819Z,24064
2017-06-17T09:23:22.835Z,23584
2017-06-17T09:24:12.103Z,22752
2017-06-17T09:25:06.179Z,22144
2017-06-17T09:26:00.429Z,22368
2017-06-17T09:26:54.133Z,22784
2017-06-17T09:27:43.381Z,22848
2017-06-17T09:28:37.401Z,23232
2017-06-17T09:29:37.239Z,22976
2017-06-17T09:30:31.341Z,22784
2017-06-17T09:31:25.668Z,23168
2017-06-17T09:32:20.940Z,24000
2017-06-17T09:33:14.862Z,24448
2017-06-17T09:34:03.983Z,24416
2017-06-17T09:34:57.541Z,24928
2017-06-17T09:35:45.868Z,26464
2017-06-17T09:36:35.111Z,27552
2017-06-17T09:37:28.693Z,27616
2017-06-17T09:38:29.180Z,26400
2017-06-17T09:39:23.265Z,25632
2017-06-17T09:40:23.295Z,26048
2017-06-17T09:41:12.484Z,26688
2017-06-17T09:42:06.481Z,27136
2017-06-17T09:43:01.415Z,26528
2017-06-17T09:43:55.520Z,25120
2017-06-17T09:44:55.597Z,25408
2017-06-17T09:45:43.665Z,27424
2017-06-17T09:46:43.714Z,28352
2017-06-17T09:47:32.708Z,26976
2017-06-17T09:48:21.769Z,25280
2017-06-17T09:49:15.852Z,24160
2017-06-17T09:50:10.895Z,23200
2017-06-17T09:51:04.942Z,21728
2017-06-17T09:51:54.033Z,21056
2017-06-17T09:52:49.100Z,21408
2017-06-17T09:53:43.098Z,21824
2017-06-17T09:54:37.132Z,20992
2017-06-17T09:55:25.214Z,18784
2017-06-17T09:56:19.262Z,16152
2017-06-17T09:57:13.537Z,14748
2017-06-17T09:58:01.359Z,14500
2017-06-17T09:58:49.430Z,14840
2017-06-17T09:59:43.435Z,15612
2017-06-17T10:00:37.536Z,15536
2017-06-17T10:01:25.556Z,15248
2017-06-17T10:02:14.613Z,15004
2017-06-17T10:03:09.705Z,15428
2017-06-17T10:03:57.744Z,14704
2017-06-17T10:04:57.834Z,13620
2017-06-17T10:05:57.760Z,13348
2017-06-17T10:06:51.848Z,13808
2017-06-17T10:07:51.943Z,14356
2017-06-17T10:08:40.958Z,14456
2017-06-17T10:09:29.926Z,14544
2017-06-17T10:10:23.992Z,14924
2017-06-17T10:11:13.090Z,15880
2017-06-17T10:12:07.137Z,16864
2017-06-17T10:12:56.436Z,17248
2017-06-17T10:13:51.212Z,17952
2017-06-17T10:14:45.294Z,18912
2017-06-17T10:15:39.325Z,20000
2017-06-17T10:16:34.351Z,20928
2017-06-17T10:17:23.404Z,21728
2017-06-17T10:18:23.481Z,22656
2017-06-17T10:19:23.510Z,24480
2017-06-17T10:20:18.571Z,25376
2017-06-17T10:21:06.549Z,25600
2017-06-17T10:22:01.589Z,24864
2017-06-17T10:22:55.699Z,23456
2017-06-17T10:23:49.439Z,19552
2017-06-17T10:24:37.634Z,22112
2017-06-17T10:25:25.363Z,22976
2017-06-17T10:26:25.792Z,24928
2017-06-17T10:27:14.825Z,26336
2017-06-17T10:28:08.517Z,27424
2017-06-17T10:29:03.630Z,27616
2017-06-17T10:29:58.610Z,27296
2017-06-17T10:30:47.939Z,27648
2017-06-17T10:31:42.177Z,28256
2017-06-17T10:32:37.160Z,28512
2017-06-17T10:33:36.813Z,27776
2017-06-17T10:34:30.854Z,27712
2017-06-17T10:35:25.130Z,28992
2017-06-17T10:36:19.583Z,31328
2017-06-17T10:37:19.280Z,35168
2017-06-17T10:38:14.079Z,38496
2017-06-17T10:39:08.447Z,22304
2017-06-17T10:40:02.638Z,32320
2017-06-17T10:40:56.705Z,43424
2017-06-17T10:41:57.736Z,45056
2017-06-17T10:42:46.822Z,45856
2017-06-17T10:43:41.870Z,45280
2017-06-17T10:44:35.869Z,42048
2017-06-17T10:45:25.024Z,40224
2017-06-17T10:46:12.994Z,39008
2017-06-17T10:47:08.070Z,37504
2017-06-17T10:47:57.160Z,36480
2017-06-17T10:48:51.152Z,33920
2017-06-17T10:49:46.253Z,31776
2017-06-17T10:50:40.277Z,32000
2017-06-17T10:51:35.363Z,31072
2017-06-17T10:52:29.969Z,29856
2017-06-17T10:53:30.263Z,29248
2017-06-17T10:54:25.500Z,29408
2017-06-17T10:55:20.650Z,21248
2017-06-17T10:56:14.562Z,27424
2017-06-17T10:57:14.630Z,26880
2017-06-17T10:58:08.696Z,26720
2017-06-17T10:59:03.343Z,27168
2017-06-17T10:59:58.555Z,26976
2017-06-17T11:00:53.825Z,28160
2017-06-17T11:01:41.947Z,30976
2017-06-17T11:02:29.941Z,32160
2017-06-17T11:03:29.993Z,30784
2017-06-17T11:04:18.065Z,29568
2017-06-17T11:05:12.949Z,29216
2017-06-17T11:06:08.169Z,30016
2017-06-17T11:07:08.239Z,29376
2017-06-17T11:08:03.228Z,25856
2017-06-17T11:09:03.312Z,22880
2017-06-17T11:09:52.314Z,23040
2017-06-17T11:10:46.164Z,24864
2017-06-17T11:11:40.428Z,26304
2017-06-17T11:12:34.541Z,26016
2017-06-17T11:13:34.533Z,25888
2017-06-17T11:14:23.584Z,27712
2017-06-17T11:15:18.693Z,32512
2017-06-17T11:16:07.759Z,36224
2017-06-17T11:17:01.727Z,36960
2017-06-17T11:17:55.848Z,35616
2017-06-17T11:18:44.849Z,34528
2017-06-17T11:19:33.944Z,26528
2017-06-17T11:20:23.032Z,28544
2017-06-17T11:21:18.007Z,24960
2017-06-17T11:22:18.048Z,22528
2017-06-17T11:23:12.427Z,23104
2017-06-17T11:24:06.164Z,27104
2017-06-17T11:25:06.206Z,26496
2017-06-17T11:26:00.248Z,26048
2017-06-17T11:26:54.322Z,28384
2017-06-17T11:27:42.405Z,28544
2017-06-17T11:28:42.772Z,27936
2017-06-17T11:29:30.463Z,28512
2017-06-17T11:30:25.500Z,28384
2017-06-17T11:31:25.696Z,25824
2017-06-17T11:32:14.624Z,23232
2017-06-17T11:33:08.659Z,21632
2017-06-17T11:34:09.070Z,21408
2017-06-17T11:34:57.787Z,21600
2017-06-17T11:35:46.806Z,21504
2017-06-17T11:36:40.942Z,20192
2017-06-17T11:37:34.975Z,18432
2017-06-17T11:38:24.016Z,17696
2017-06-17T11:39:24.347Z,18016
2017-06-17T11:40:18.145Z,19360
2017-06-17T11:41:13.138Z,20160
2017-06-17T11:42:07.148Z,20736
2017-06-17T11:43:01.203Z,22496
2017-06-17T11:43:56.259Z,23520
2017-06-17T11:44:57.620Z,23040
2017-06-17T11:45:51.346Z,23008
2017-06-17T11:46:45.406Z,23232
2017-06-17T11:47:40.459Z,22720
2017-06-17T11:48:28.499Z,22496
2017-06-17T11:49:22.527Z,22944
2017-06-17T11:50:24.309Z,22240
2017-06-17T11:51:17.724Z,21472
2017-06-17T11:52:11.772Z,23104
2017-06-17T11:53:05.801Z,25312
2017-06-17T11:53:54.831Z,24480
2017-06-17T11:54:48.897Z,21824
2017-06-17T11:55:43.989Z,19072
2017-06-17T11:56:38.002Z,18528
2017-06-17T11:57:26.984Z,18592
2017-06-17T11:58:22.054Z,18080
2017-06-17T11:59:22.155Z,16704
2017-06-17T12:00:16.220Z,15832
2017-06-17T12:01:17.221Z,15592
2017-06-17T12:02:17.241Z,16064
2017-06-17T12:03:11.314Z,17504
2017-06-17T12:04:11.338Z,19040
2017-06-17T12:05:00.409Z,20288